This is the latest recevied weather packets stored in our database for station/object JH0FOG-13. If no packets are shown the sender has not sent any weather packets the latest 10 day(s).
| Time | Temp. | Humidity | Pressure | Rain* | Wind** | Luminosity | Snow |
|---|---|---|---|---|---|---|---|
| 1777730401 | 10.56° C | 82% | 1012.8 hPa | 0 mm | - | - | - |
| 1777729201 | 11.11° C | 81% | 1013 hPa | 0 mm | - | - | - |
| 1777728001 | 10.56° C | 83% | 1013 hPa | 0 mm | - | - | - |
| 1777726801 | 11.11° C | 82% | 1013 hPa | 0 mm | - | - | - |
| 1777725601 | 11.11° C | 82% | 1012.8 hPa | 0 mm | - | - | - |
| 1777724401 | 11.11° C | 82% | 1012.9 hPa | 0 mm | - | - | - |
| 1777723202 | 11.11° C | 83% | 1012.9 hPa | 0 mm | - | - | - |
| 1777722002 | 11.67° C | 83% | 1012.7 hPa | 0 mm | - | - | - |
| 1777720802 | 12.22° C | 82% | 1012.6 hPa | 0 mm | - | - | - |
| 1777719602 | 12.22° C | 82% | 1012.6 hPa | 0 mm | - | - | - |
| 1777718402 | 13.33° C | 81% | 1012.3 hPa | 0 mm | - | - | - |
| 1777717202 | 13.33° C | 81% | 1012 hPa | 0 mm | - | - | - |
| 1777716002 | 14.44° C | 80% | 1011.4 hPa | 0 mm | - | - | - |
| 1777714802 | 15° C | 77% | 1011.2 hPa | 0 mm | - | - | - |
| 1777713602 | 15.56° C | 77% | 1011.1 hPa | 0 mm | - | - | - |
| 1777712402 | 16.11° C | 74% | 1010.9 hPa | 0 mm | - | - | - |
| 1777711202 | 16.67° C | 71% | 1010.9 hPa | 0 mm | - | - | - |
| 1777710002 | 17.22° C | 69% | 1011 hPa | 0 mm | - | - | - |
| 1777708802 | 17.78° C | 64% | 1010.8 hPa | 0 mm | - | - | - |
| 1777707602 | 18.33° C | 62% | 1010.8 hPa | 0 mm | - | - | - |
| 1777706402 | 18.33° C | 59% | 1010.8 hPa | 0 mm | - | - | - |
| 1777705202 | 18.33° C | 60% | 1010.9 hPa | 0 mm | - | - | - |
| 1777704002 | 18.33° C | 60% | 1010.8 hPa | 0 mm | - | - | - |
| 1777702802 | 18.33° C | 62% | 1010.7 hPa | 0 mm | - | - | - |
| 1777701602 | 18.33° C | 62% | 1010.6 hPa | 0 mm | - | - | - |
* Rain latest hour (hover to see other rain measurements)
** Current wind speed in m/s (hover to see current wind gust speed)